Time;durP1;ratioP1;P1;durP2;ratioP2;P2;SDS_P1;SDS_P2;PMS_P1;PMS_P2;Temp;Humidity;BMP_temperature;BMP_pressure;BME280_temperature;BME280_humidity;BME280_pressure;Samples;Min_cycle;Max_cycle;Signal;HPM_P1;HPM_P2
2022/08/19 00:01:10;;;;;;;;;;;23.40;76.50;;;;;;4950592;28;19978;-65
2022/08/19 00:03:35;;;;;;;;;;;23.60;74.80;;;;;;4959205;28;19969;-65
2022/08/19 00:06:01;;;;;;;;;;;23.80;74.20;;;;;;4963474;28;20009;-64
2022/08/19 00:08:26;;;;;;;;;;;23.90;73.30;;;;;;4967282;28;19921;-63
2022/08/19 00:10:52;;;;;;;;;;;24.00;73.40;;;;;;4961209;28;19910;-62
2022/08/19 00:13:18;;;;;;;;;;;24.00;72.90;;;;;;4959814;28;20355;-63
2022/08/19 00:15:44;;;;;;;;;;;24.10;72.70;;;;;;4961545;28;19916;-65
2022/08/19 00:18:10;;;;;;;;;;;24.10;72.20;;;;;;4971477;28;19910;-65
2022/08/19 00:20:38;;;;;;;;;;;24.10;72.00;;;;;;4974169;28;19910;-64
2022/08/19 00:23:03;;;;;;;;;;;24.10;71.10;;;;;;4975585;28;20413;-64
2022/08/19 00:25:29;;;;;;;;;;;24.00;71.10;;;;;;4972850;28;19910;-65
2022/08/19 00:27:55;;;;;;;;;;;24.00;71.30;;;;;;4965304;28;19960;-64
2022/08/19 00:30:20;;;;;;;;;;;24.00;70.80;;;;;;4950144;28;20291;-65
2022/08/19 00:32:46;;;;;;;;;;;24.10;69.10;;;;;;4966914;28;19918;-65
2022/08/19 00:35:12;;;;;;;;;;;24.20;68.50;;;;;;4961376;28;19910;-65
2022/08/19 00:37:39;;;;;;;;;;;24.30;67.60;;;;;;4959101;28;19914;-65
2022/08/19 00:40:05;;;;;;;;;;;24.40;67.00;;;;;;4949837;29;20252;-64
2022/08/19 00:42:31;;;;;;;;;;;24.50;65.80;;;;;;4965292;28;20285;-63
2022/08/19 00:44:56;;;;;;;;;;;24.50;65.60;;;;;;4959168;28;19918;-65
2022/08/19 00:47:22;;;;;;;;;;;24.50;65.50;;;;;;4964667;28;19919;-64
2022/08/19 00:49:51;;;;;;;;;;;24.60;65.20;;;;;;4970430;28;19952;-64
2022/08/19 00:52:19;;;;;;;;;;;24.70;63.70;;;;;;4965457;28;19984;-64
2022/08/19 00:54:46;;;;;;;;;;;24.80;62.70;;;;;;4962705;28;19948;-63
2022/08/19 00:57:14;;;;;;;;;;;24.90;63.00;;;;;;4969377;28;19917;-65
2022/08/19 00:59:42;;;;;;;;;;;24.90;63.20;;;;;;4956653;28;20331;-63
2022/08/19 01:02:07;;;;;;;;;;;24.90;65.90;;;;;;4962320;28;19918;-63
2022/08/19 01:04:33;;;;;;;;;;;25.00;65.60;;;;;;4964828;28;19969;-64
2022/08/19 01:06:58;;;;;;;;;;;24.90;65.40;;;;;;4970233;28;19925;-64
2022/08/19 01:09:24;;;;;;;;;;;24.80;66.50;;;;;;4966002;28;20382;-64
2022/08/19 01:11:50;;;;;;;;;;;24.80;67.30;;;;;;4962370;28;20326;-63
2022/08/19 01:14:16;;;;;;;;;;;24.80;69.70;;;;;;4968332;28;19917;-63
2022/08/19 01:16:42;;;;;;;;;;;24.70;71.90;;;;;;4966076;28;19910;-63
2022/08/19 01:19:18;;;;;;;;;;;24.60;77.10;;;;;;4962062;28;19957;-63
2022/08/19 01:21:48;;;;;;;;;;;24.50;77.80;;;;;;4967049;28;20018;-63
2022/08/19 01:24:14;;;;;;;;;;;24.30;79.40;;;;;;4969972;28;19910;-63
2022/08/19 01:26:42;;;;;;;;;;;24.30;78.80;;;;;;4963945;28;20346;-63
2022/08/19 01:29:09;;;;;;;;;;;24.20;81.60;;;;;;4950606;28;19915;-64
2022/08/19 01:31:35;;;;;;;;;;;24.00;83.10;;;;;;4969806;28;19938;-64
2022/08/19 01:34:01;;;;;;;;;;;23.80;84.50;;;;;;4968200;28;19910;-64
2022/08/19 01:36:29;;;;;;;;;;;23.30;89.10;;;;;;4961783;28;19917;-63
2022/08/19 01:38:55;;;;;;;;;;;22.60;91.40;;;;;;4965125;28;19920;-65
2022/08/19 01:41:23;;;;;;;;;;;22.20;91.20;;;;;;4969656;28;20392;-63
2022/08/19 01:43:50;;;;;;;;;;;22.00;93.20;;;;;;4964983;28;20024;-63
2022/08/19 01:46:16;;;;;;;;;;;21.90;93.40;;;;;;4961629;28;19923;-63
2022/08/19 01:48:42;;;;;;;;;;;21.80;94.30;;;;;;4968453;28;20259;-63
2022/08/19 01:51:08;;;;;;;;;;;21.90;94.20;;;;;;4968777;28;19921;-63
2022/08/19 01:53:34;;;;;;;;;;;22.20;93.90;;;;;;4961496;28;19918;-64
2022/08/19 01:56:00;;;;;;;;;;;22.50;93.00;;;;;;4964257;28;19910;-64
2022/08/19 01:58:31;;;;;;;;;;;22.60;91.80;;;;;;4968185;28;19957;-64
2022/08/19 02:00:57;;;;;;;;;;;22.70;90.50;;;;;;4949117;28;19964;-63
2022/08/19 02:03:22;;;;;;;;;;;22.60;90.30;;;;;;4961131;28;20390;-64
2022/08/19 02:05:53;;;;;;;;;;;22.20;91.50;;;;;;4967179;28;19918;-63
2022/08/19 02:08:19;;;;;;;;;;;22.10;90.70;;;;;;4969067;28;19914;-64
2022/08/19 02:10:44;;;;;;;;;;;22.20;90.90;;;;;;4962011;28;19914;-63
2022/08/19 02:13:10;;;;;;;;;;;22.40;90.30;;;;;;4945077;29;19917;-64
2022/08/19 02:15:37;;;;;;;;;;;22.50;90.60;;;;;;4960093;28;20335;-63
2022/08/19 02:18:02;;;;;;;;;;;22.60;90.00;;;;;;4968356;28;19956;-65
2022/08/19 02:20:28;;;;;;;;;;;22.80;89.70;;;;;;4967600;28;19957;-64
2022/08/19 02:22:53;;;;;;;;;;;22.80;90.00;;;;;;4961015;28;19910;-64
2022/08/19 02:25:19;;;;;;;;;;;22.70;90.80;;;;;;4964119;28;19918;-64
2022/08/19 02:27:44;;;;;;;;;;;22.70;90.80;;;;;;4968914;28;20022;-63
2022/08/19 02:30:12;;;;;;;;;;;22.20;90.60;;;;;;4953296;28;19978;-63
2022/08/19 02:32:38;;;;;;;;;;;22.00;89.40;;;;;;4960902;28;20001;-63
2022/08/19 02:35:04;;;;;;;;;;;21.70;90.30;;;;;;4967714;28;20005;-63
2022/08/19 02:40:14;;;;;;;;;;;21.40;91.00;;;;;;4962241;28;20009;-62
2022/08/19 02:42:40;;;;;;;;;;;21.60;91.30;;;;;;4961286;28;20001;-64
2022/08/19 02:45:07;;;;;;;;;;;21.70;90.40;;;;;;4968442;28;19914;-65
2022/08/19 02:47:33;;;;;;;;;;;21.60;90.60;;;;;;4948788;28;19939;-63
2022/08/19 02:50:00;;;;;;;;;;;21.70;88.70;;;;;;4960462;28;19914;-63
2022/08/19 02:52:27;;;;;;;;;;;21.70;88.60;;;;;;4964381;28;20316;-64
2022/08/19 02:54:55;;;;;;;;;;;21.70;89.60;;;;;;4968234;28;19914;-63
2022/08/19 02:57:20;;;;;;;;;;;21.60;90.80;;;;;;4962655;28;20358;-63
2022/08/19 02:59:46;;;;;;;;;;;21.60;90.80;;;;;;4945707;28;20347;-62
2022/08/19 03:02:11;;;;;;;;;;;21.70;90.80;;;;;;4967643;28;19922;-63
2022/08/19 03:04:37;;;;;;;;;;;21.50;90.60;;;;;;4966580;28;19922;-64
2022/08/19 03:07:03;;;;;;;;;;;21.40;91.00;;;;;;4959862;28;19918;-64
2022/08/19 03:09:29;;;;;;;;;;;21.30;91.00;;;;;;4963396;28;19957;-64
2022/08/19 03:11:55;;;;;;;;;;;21.40;90.20;;;;;;4967901;28;20374;-63
2022/08/19 03:14:20;;;;;;;;;;;21.60;90.10;;;;;;4958258;28;19970;-63
2022/08/19 03:16:47;;;;;;;;;;;21.60;89.10;;;;;;4964408;28;19915;-64
2022/08/19 03:19:15;;;;;;;;;;;21.70;88.40;;;;;;4960560;28;20016;-64
2022/08/19 03:21:44;;;;;;;;;;;21.60;89.00;;;;;;4965564;28;19973;-64
2022/08/19 03:24:10;;;;;;;;;;;21.70;88.30;;;;;;4967811;28;19914;-64
2022/08/19 03:26:40;;;;;;;;;;;21.60;87.60;;;;;;4961410;28;19922;-63
2022/08/19 03:29:05;;;;;;;;;;;21.60;87.10;;;;;;4960224;28;19910;-63
2022/08/19 03:31:32;;;;;;;;;;;21.60;87.30;;;;;;4949654;28;20278;-63
2022/08/19 03:33:57;;;;;;;;;;;21.70;86.80;;;;;;4965617;28;19924;-64
2022/08/19 03:36:24;;;;;;;;;;;21.80;86.50;;;;;;4959775;28;19914;-63
2022/08/19 03:38:52;;;;;;;;;;;21.70;87.00;;;;;;4963792;28;19921;-64
2022/08/19 03:41:18;;;;;;;;;;;21.90;86.30;;;;;;4967556;28;19914;-64
2022/08/19 03:43:48;;;;;;;;;;;21.90;86.00;;;;;;4962130;28;20016;-64
2022/08/19 03:46:15;;;;;;;;;;;21.80;85.80;;;;;;4959850;28;20238;-63
2022/08/19 03:48:42;;;;;;;;;;;21.50;86.50;;;;;;4966358;28;19950;-64
2022/08/19 03:51:15;;;;;;;;;;;21.50;86.60;;;;;;4966773;28;19949;-63
2022/08/19 03:53:40;;;;;;;;;;;21.50;86.80;;;;;;4967308;28;20274;-63
2022/08/19 03:56:08;;;;;;;;;;;21.60;86.60;;;;;;4965657;28;20046;-63
2022/08/19 03:58:33;;;;;;;;;;;21.70;87.00;;;;;;4959620;28;19997;-64
2022/08/19 04:00:59;;;;;;;;;;;21.70;86.40;;;;;;4943945;28;20005;-63
2022/08/19 04:03:26;;;;;;;;;;;21.80;86.90;;;;;;4967207;28;19982;-63
2022/08/19 04:05:53;;;;;;;;;;;21.80;86.30;;;;;;4961920;28;20409;-63
2022/08/19 04:08:20;;;;;;;;;;;21.90;84.20;;;;;;4959504;28;19917;-65
2022/08/19 04:10:46;;;;;;;;;;;22.10;81.60;;;;;;4966282;28;20434;-64
2022/08/19 04:13:11;;;;;;;;;;;22.10;79.50;;;;;;4966231;28;20005;-65
2022/08/19 04:15:41;;;;;;;;;;;21.90;78.70;;;;;;4955488;28;19997;-66
2022/08/19 04:18:08;;;;;;;;;;;21.90;80.60;;;;;;4965917;28;19915;-65
2022/08/19 04:20:44;;;;;;;;;;;21.80;87.60;;;;;;4966821;28;19917;-64
2022/08/19 04:23:10;;;;;;;;;;;21.80;85.90;;;;;;4963795;28;19942;-64
2022/08/19 04:25:37;;;;;;;;;;;21.90;86.90;;;;;;4964306;28;19914;-64
2022/08/19 04:28:02;;;;;;;;;;;21.80;87.60;;;;;;4970844;28;19922;-64
2022/08/19 04:30:28;;;;;;;;;;;21.70;87.30;;;;;;4954206;28;19914;-64
2022/08/19 04:32:54;;;;;;;;;;;21.70;85.50;;;;;;4963063;28;19960;-66
2022/08/19 04:35:19;;;;;;;;;;;21.80;83.40;;;;;;4967803;28;19912;-64
2022/08/19 04:37:45;;;;;;;;;;;21.80;84.50;;;;;;4970778;28;19991;-64
2022/08/19 04:42:54;;;;;;;;;;;21.60;85.00;;;;;;4963068;28;19917;-64
2022/08/19 04:45:20;;;;;;;;;;;21.50;81.90;;;;;;4969147;28;20005;-64
2022/08/19 04:47:46;;;;;;;;;;;21.50;82.40;;;;;;4970347;28;20341;-65
2022/08/19 04:50:11;;;;;;;;;;;21.40;82.80;;;;;;4962686;28;19956;-63
2022/08/19 04:52:41;;;;;;;;;;;21.10;81.70;;;;;;4965301;28;20291;-64
2022/08/19 04:55:07;;;;;;;;;;;21.00;81.00;;;;;;4970447;28;19914;-65
2022/08/19 04:57:33;;;;;;;;;;;21.20;81.30;;;;;;4966920;28;19910;-63
2022/08/19 04:59:58;;;;;;;;;;;21.20;82.00;;;;;;4950415;28;19922;-64
2022/08/19 05:02:25;;;;;;;;;;;21.10;80.30;;;;;;4968352;28;19938;-64
2022/08/19 05:05:00;;;;;;;;;;;21.10;81.80;;;;;;4970443;28;19917;-65
2022/08/19 05:07:25;;;;;;;;;;;21.00;81.60;;;;;;4963955;28;19926;-65
2022/08/19 05:09:51;;;;;;;;;;;21.00;83.80;;;;;;4962933;28;20322;-63
2022/08/19 05:12:17;;;;;;;;;;;20.80;84.40;;;;;;4970153;28;19917;-65
2022/08/19 05:14:43;;;;;;;;;;;20.90;83.30;;;;;;4960608;28;19958;-64
2022/08/19 05:17:08;;;;;;;;;;;21.00;82.80;;;;;;4969864;28;20369;-64
2022/08/19 05:22:37;;;;;;;;;;;21.00;82.20;;;;;;4962315;28;19918;-66
2022/08/19 05:25:07;;;;;;;;;;;20.90;82.20;;;;;;4964896;28;19910;-64
2022/08/19 05:27:33;;;;;;;;;;;21.00;82.00;;;;;;4962077;28;19966;-63
2022/08/19 05:29:59;;;;;;;;;;;21.00;82.20;;;;;;4957915;28;19965;-64
2022/08/19 05:32:24;;;;;;;;;;;21.00;82.00;;;;;;4968790;28;19915;-63
2022/08/19 05:34:50;;;;;;;;;;;21.10;80.70;;;;;;4961916;28;19910;-64
2022/08/19 05:37:16;;;;;;;;;;;21.00;81.60;;;;;;4965206;28;19914;-64
2022/08/19 05:39:42;;;;;;;;;;;21.10;82.10;;;;;;4969686;28;19966;-63
2022/08/19 05:42:08;;;;;;;;;;;21.10;80.00;;;;;;4965156;28;20277;-64
2022/08/19 05:44:36;;;;;;;;;;;21.20;80.10;;;;;;4961857;28;19910;-64
2022/08/19 05:47:04;;;;;;;;;;;21.40;80.20;;;;;;4968274;28;20024;-64
2022/08/19 05:49:30;;;;;;;;;;;21.50;78.60;;;;;;4969248;28;19918;-63
2022/08/19 05:51:56;;;;;;;;;;;21.50;79.00;;;;;;4961741;28;19914;-64
2022/08/19 05:54:25;;;;;;;;;;;21.50;76.50;;;;;;4963989;28;19914;-65
2022/08/19 05:56:51;;;;;;;;;;;21.50;77.90;;;;;;4969621;28;20009;-65
2022/08/19 05:59:17;;;;;;;;;;;21.60;78.40;;;;;;4956533;28;19914;-61
2022/08/19 06:01:45;;;;;;;;;;;21.70;77.60;;;;;;4961874;28;19918;-67
2022/08/19 06:04:11;;;;;;;;;;;21.70;78.10;;;;;;4966529;28;19926;-66
2022/08/19 06:06:36;;;;;;;;;;;21.60;76.00;;;;;;4969083;28;19928;-66
2022/08/19 06:09:03;;;;;;;;;;;21.60;78.10;;;;;;4962107;28;19914;-65
2022/08/19 06:11:32;;;;;;;;;;;21.80;77.40;;;;;;4962482;28;19914;-64
2022/08/19 06:14:00;;;;;;;;;;;22.00;76.80;;;;;;4968861;28;19999;-66
2022/08/19 06:16:26;;;;;;;;;;;21.90;76.80;;;;;;4962781;28;19910;-65
2022/08/19 06:18:52;;;;;;;;;;;21.90;76.80;;;;;;4961738;28;19914;-63
2022/08/19 06:21:19;;;;;;;;;;;22.00;77.20;;;;;;4968945;28;19962;-67
2022/08/19 06:23:45;;;;;;;;;;;22.00;77.60;;;;;;4966920;28;19910;-65
2022/08/19 06:26:12;;;;;;;;;;;22.00;76.80;;;;;;4960919;28;20306;-69
2022/08/19 06:28:42;;;;;;;;;;;22.00;75.30;;;;;;4964973;28;19914;-64
2022/08/19 06:31:08;;;;;;;;;;;22.00;76.30;;;;;;4959960;28;20264;-65
2022/08/19 06:33:34;;;;;;;;;;;22.10;76.60;;;;;;4963512;28;20024;-66
2022/08/19 06:35:59;;;;;;;;;;;22.30;75.20;;;;;;4960922;28;20001;-67
2022/08/19 06:38:25;;;;;;;;;;;22.30;75.30;;;;;;4950700;29;19969;-68
2022/08/19 06:40:50;;;;;;;;;;;22.40;74.70;;;;;;4967279;28;19921;-65
2022/08/19 06:43:16;;;;;;;;;;;22.40;74.50;;;;;;4960492;28;19917;-69
2022/08/19 06:45:51;;;;;;;;;;;22.50;74.20;;;;;;4973346;28;20366;-67
2022/08/19 06:48:19;;;;;;;;;;;22.50;72.90;;;;;;4956658;28;20360;-69
2022/08/19 06:50:45;;;;;;;;;;;22.60;73.00;;;;;;4957347;28;19948;-66
2022/08/19 06:53:10;;;;;;;;;;;22.70;72.40;;;;;;4968369;28;19914;-67
2022/08/19 06:55:37;;;;;;;;;;;22.70;72.70;;;;;;4960366;28;19916;-65
2022/08/19 06:58:03;;;;;;;;;;;22.80;72.50;;;;;;4962471;28;19914;-66
2022/08/19 07:00:29;;;;;;;;;;;22.90;71.30;;;;;;4956706;28;20354;-65
2022/08/19 07:02:54;;;;;;;;;;;23.00;71.50;;;;;;4964341;28;19922;-65
2022/08/19 07:05:22;;;;;;;;;;;23.10;71.60;;;;;;4959629;28;20286;-66
2022/08/19 07:07:48;;;;;;;;;;;23.10;73.00;;;;;;4965733;28;19930;-68
2022/08/19 07:10:13;;;;;;;;;;;23.20;69.60;;;;;;4967876;28;19952;-64
2022/08/19 07:12:40;;;;;;;;;;;23.30;70.00;;;;;;4960521;28;20000;-67
2022/08/19 07:15:08;;;;;;;;;;;23.30;69.50;;;;;;4961963;28;19922;-65
2022/08/19 07:17:38;;;;;;;;;;;23.30;69.60;;;;;;4967802;28;20278;-71
2022/08/19 07:20:04;;;;;;;;;;;23.30;69.10;;;;;;4963280;28;19910;-65
2022/08/19 07:22:30;;;;;;;;;;;23.20;69.30;;;;;;4959882;28;19917;-65
2022/08/19 07:24:56;;;;;;;;;;;23.30;69.10;;;;;;4966316;28;19915;-70
2022/08/19 07:27:22;;;;;;;;;;;23.20;68.40;;;;;;4966907;28;19993;-64
2022/08/19 07:29:47;;;;;;;;;;;23.20;69.00;;;;;;4937428;28;19922;-65
2022/08/19 07:32:13;;;;;;;;;;;23.20;68.20;;;;;;4948023;28;19910;-65
2022/08/19 07:34:38;;;;;;;;;;;23.30;68.20;;;;;;4959767;28;19960;-71
2022/08/19 07:37:05;;;;;;;;;;;23.30;68.00;;;;;;4964304;28;19922;-73
2022/08/19 07:39:32;;;;;;;;;;;23.50;68.30;;;;;;4967526;28;19918;-71
2022/08/19 07:41:58;;;;;;;;;;;23.70;67.20;;;;;;4953008;28;20025;-72
2022/08/19 07:44:24;;;;;;;;;;;23.90;67.10;;;;;;4952965;28;19925;-73
2022/08/19 07:46:52;;;;;;;;;;;24.10;67.20;;;;;;4952789;28;19919;-72
2022/08/19 07:49:19;;;;;;;;;;;24.20;66.60;;;;;;4952605;28;19925;-73
2022/08/19 07:51:56;;;;;;;;;;;24.20;66.60;;;;;;4952822;28;19910;-76
2022/08/19 07:54:22;;;;;;;;;;;24.30;66.50;;;;;;4969406;28;19930;-74
2022/08/19 07:56:50;;;;;;;;;;;24.40;66.00;;;;;;4962463;28;19910;-72
2022/08/19 07:59:17;;;;;;;;;;;24.40;66.50;;;;;;4949233;28;19914;-65
2022/08/19 08:01:43;;;;;;;;;;;24.40;66.10;;;;;;4965049;28;19921;-66
2022/08/19 08:09:38;;;;;;;;;;;24.40;63.90;;;;;;4960309;28;20369;-66
2022/08/19 08:12:06;;;;;;;;;;;24.50;63.30;;;;;;4957062;28;19915;-68
2022/08/19 08:14:32;;;;;;;;;;;24.60;63.90;;;;;;4953438;28;19911;-66
2022/08/19 08:16:58;;;;;;;;;;;24.60;63.60;;;;;;4953773;28;19930;-66
2022/08/19 08:19:24;;;;;;;;;;;24.70;63.20;;;;;;4957319;28;20402;-67
2022/08/19 08:21:50;;;;;;;;;;;24.80;63.20;;;;;;4953486;28;20350;-68
2022/08/19 08:24:16;;;;;;;;;;;24.80;63.40;;;;;;4937495;28;19911;-69
2022/08/19 08:26:43;;;;;;;;;;;25.00;61.60;;;;;;4962783;28;20285;-66
2022/08/19 08:29:12;;;;;;;;;;;25.20;63.50;;;;;;4962910;28;19917;-68
2022/08/19 08:31:40;;;;;;;;;;;25.30;63.30;;;;;;4934409;29;19947;-66
2022/08/19 08:34:05;;;;;;;;;;;25.50;62.50;;;;;;4936137;29;19910;-73
2022/08/19 08:36:33;;;;;;;;;;;25.60;60.80;;;;;;4954947;28;19933;-65
2022/08/19 08:38:59;;;;;;;;;;;25.90;60.20;;;;;;4953117;28;19914;-69
2022/08/19 08:41:25;;;;;;;;;;;26.20;59.60;;;;;;4952543;28;19921;-71
2022/08/19 08:43:52;;;;;;;;;;;26.50;59.50;;;;;;4952284;28;20033;-68
2022/08/19 08:46:21;;;;;;;;;;;26.70;59.50;;;;;;4935116;28;20332;-65
2022/08/19 08:48:49;;;;;;;;;;;26.70;58.80;;;;;;4952041;28;20371;-68
2022/08/19 08:51:18;;;;;;;;;;;26.80;59.50;;;;;;4952523;28;19911;-67
2022/08/19 08:53:46;;;;;;;;;;;26.80;59.80;;;;;;4965926;28;20302;-66
2022/08/19 08:56:12;;;;;;;;;;;26.80;58.70;;;;;;4952685;28;19922;-65
2022/08/19 08:58:57;;;;;;;;;;;26.90;59.70;;;;;;4951896;28;20017;-66
2022/08/19 09:01:22;;;;;;;;;;;26.90;59.00;;;;;;4949923;28;20243;-69
2022/08/19 09:03:48;;;;;;;;;;;26.90;59.80;;;;;;4971033;28;19932;-67
2022/08/19 09:06:18;;;;;;;;;;;26.80;60.00;;;;;;4957683;28;20430;-67
2022/08/19 09:08:43;;;;;;;;;;;26.70;59.50;;;;;;4966403;28;19910;-66
2022/08/19 09:11:13;;;;;;;;;;;26.60;59.30;;;;;;4970131;28;20350;-66
2022/08/19 09:13:57;;;;;;;;;;;26.50;59.60;;;;;;4963427;28;19910;-69
2022/08/19 09:16:26;;;;;;;;;;;26.40;60.20;;;;;;4963357;28;19917;-68
2022/08/19 09:18:54;;;;;;;;;;;26.40;59.70;;;;;;4962742;28;19911;-69
2022/08/19 09:21:22;;;;;;;;;;;26.40;59.30;;;;;;4962360;28;20212;-68
2022/08/19 09:23:48;;;;;;;;;;;26.40;58.70;;;;;;4963936;28;19925;-68
2022/08/19 09:26:15;;;;;;;;;;;26.40;58.10;;;;;;4969614;28;19910;-68
2022/08/19 09:28:43;;;;;;;;;;;26.50;57.60;;;;;;4966406;28;19965;-68
2022/08/19 09:31:10;;;;;;;;;;;26.60;57.70;;;;;;4947731;28;19997;-66
2022/08/19 09:33:35;;;;;;;;;;;26.60;58.00;;;;;;4966977;28;19910;-68
2022/08/19 09:36:06;;;;;;;;;;;26.60;58.00;;;;;;4969731;28;20429;-71
2022/08/19 09:38:31;;;;;;;;;;;26.60;58.10;;;;;;4963155;28;20429;-66
2022/08/19 09:41:01;;;;;;;;;;;26.70;58.90;;;;;;4962300;28;19922;-67
2022/08/19 09:43:27;;;;;;;;;;;26.70;58.00;;;;;;4961857;28;19914;-69
2022/08/19 09:45:53;;;;;;;;;;;26.80;58.10;;;;;;4963595;28;20275;-69
2022/08/19 09:48:20;;;;;;;;;;;26.80;58.10;;;;;;4969458;28;19930;-70
2022/08/19 09:50:45;;;;;;;;;;;26.90;58.50;;;;;;4965834;28;19961;-69
2022/08/19 09:53:11;;;;;;;;;;;26.90;58.60;;;;;;4961459;28;19915;-66
2022/08/19 09:55:41;;;;;;;;;;;27.00;58.70;;;;;;4967389;28;19946;-69
2022/08/19 09:58:06;;;;;;;;;;;27.10;59.30;;;;;;4969372;28;19921;-68
2022/08/19 10:00:32;;;;;;;;;;;27.20;59.00;;;;;;4949311;28;19914;-70
2022/08/19 10:02:57;;;;;;;;;;;27.30;59.60;;;;;;4962205;28;19926;-69
2022/08/19 10:08:07;;;;;;;;;;;27.50;59.20;;;;;;4971765;28;19929;-69
2022/08/19 10:10:35;;;;;;;;;;;27.50;59.30;;;;;;4954434;28;20367;-70
2022/08/19 10:13:00;;;;;;;;;;;27.50;59.20;;;;;;4937221;28;20365;-67
2022/08/19 10:15:26;;;;;;;;;;;27.40;59.50;;;;;;4959684;28;19946;-69
2022/08/19 10:17:51;;;;;;;;;;;27.40;59.90;;;;;;4954644;28;19950;-68
2022/08/19 10:20:17;;;;;;;;;;;27.30;59.90;;;;;;4953238;28;19918;-73
2022/08/19 10:22:43;;;;;;;;;;;27.20;60.50;;;;;;4961101;28;19914;-68
2022/08/19 10:25:09;;;;;;;;;;;27.20;60.30;;;;;;4962697;28;19930;-72
2022/08/19 10:27:34;;;;;;;;;;;27.10;60.80;;;;;;4956824;28;19922;-72
2022/08/19 10:30:01;;;;;;;;;;;27.10;61.80;;;;;;4948937;28;20203;-69
2022/08/19 10:32:27;;;;;;;;;;;27.00;62.10;;;;;;4954185;28;20017;-70
2022/08/19 10:34:53;;;;;;;;;;;27.00;63.70;;;;;;4956804;28;20319;-70
2022/08/19 10:37:19;;;;;;;;;;;26.90;65.60;;;;;;4965585;28;19910;-69
2022/08/19 10:39:47;;;;;;;;;;;26.70;69.20;;;;;;4961069;28;19916;-71
2022/08/19 10:42:13;;;;;;;;;;;26.40;74.30;;;;;;4965563;28;19993;-71
2022/08/19 10:44:39;;;;;;;;;;;26.20;77.20;;;;;;4968276;28;19914;-69
2022/08/19 10:47:05;;;;;;;;;;;25.90;78.50;;;;;;4961791;28;20067;-77
2022/08/19 10:49:32;;;;;;;;;;;25.70;79.70;;;;;;4965600;28;19950;-62
2022/08/19 10:57:30;;;;;;;;;;;25.20;80.90;;;;;;4967629;28;19917;-72
2022/08/19 10:59:55;;;;;;;;;;;24.60;80.50;;;;;;4948946;28;20370;-71
2022/08/19 11:02:22;;;;;;;;;;;24.40;83.30;;;;;;4961253;28;19918;-66
2022/08/19 11:04:49;;;;;;;;;;;24.50;79.30;;;;;;4935864;29;19950;-70
2022/08/19 11:07:15;;;;;;;;;;;24.50;81.90;;;;;;4953377;28;19923;-65
2022/08/19 11:09:41;;;;;;;;;;;24.20;82.00;;;;;;4953384;28;19911;-72
2022/08/19 11:12:08;;;;;;;;;;;24.70;82.80;;;;;;4953490;28;19910;-69
2022/08/19 11:14:34;;;;;;;;;;;25.00;82.10;;;;;;4961324;28;19910;-68
2022/08/19 11:17:00;;;;;;;;;;;25.20;79.50;;;;;;4959666;28;19997;-69
2022/08/19 11:19:25;;;;;;;;;;;25.50;79.00;;;;;;4960435;28;20351;-66
2022/08/19 11:21:53;;;;;;;;;;;25.60;73.00;;;;;;4949681;29;19915;-69
2022/08/19 11:24:20;;;;;;;;;;;25.90;74.40;;;;;;4962855;28;20426;-72
2022/08/19 11:26:50;;;;;;;;;;;26.10;75.80;;;;;;4958756;28;19929;-65
2022/08/19 11:29:17;;;;;;;;;;;26.40;74.90;;;;;;4969990;28;19956;-67
2022/08/19 11:31:44;;;;;;;;;;;26.40;72.20;;;;;;4957403;28;20346;-66
2022/08/19 11:34:12;;;;;;;;;;;26.30;72.40;;;;;;4965083;28;19911;-66
2022/08/19 11:36:38;;;;;;;;;;;26.20;73.10;;;;;;4972513;28;19947;-71
2022/08/19 11:39:05;;;;;;;;;;;26.20;72.70;;;;;;4959164;28;19915;-69
2022/08/19 11:41:30;;;;;;;;;;;26.40;73.50;;;;;;4966337;28;20049;-68
2022/08/19 11:43:56;;;;;;;;;;;26.50;73.00;;;;;;4951813;28;20468;-68
2022/08/19 11:46:23;;;;;;;;;;;26.60;72.60;;;;;;4953116;28;19922;-65
2022/08/19 11:48:50;;;;;;;;;;;26.70;71.00;;;;;;4958136;28;20394;-68
2022/08/19 11:51:18;;;;;;;;;;;26.70;71.50;;;;;;4963611;28;19914;-67
2022/08/19 11:53:44;;;;;;;;;;;26.70;72.20;;;;;;4963372;28;19966;-68
2022/08/19 11:56:10;;;;;;;;;;;26.70;72.10;;;;;;4938405;28;20434;-72
2022/08/19 11:58:35;;;;;;;;;;;26.80;69.20;;;;;;4936705;29;19914;-70
2022/08/19 12:01:01;;;;;;;;;;;26.70;70.00;;;;;;4944572;28;19961;-68
2022/08/19 12:03:27;;;;;;;;;;;26.60;68.50;;;;;;4952483;28;20390;-68
2022/08/19 12:05:53;;;;;;;;;;;26.60;69.30;;;;;;4952443;28;19961;-68
2022/08/19 12:08:19;;;;;;;;;;;26.60;68.30;;;;;;4956517;28;19922;-69
2022/08/19 12:10:45;;;;;;;;;;;26.70;69.20;;;;;;4954117;28;19911;-70
2022/08/19 12:13:12;;;;;;;;;;;26.70;68.20;;;;;;4966246;28;19916;-70
2022/08/19 12:15:40;;;;;;;;;;;26.90;66.50;;;;;;4959938;28;19925;-70
2022/08/19 12:18:06;;;;;;;;;;;27.00;66.90;;;;;;4953089;28;19957;-68
2022/08/19 12:20:33;;;;;;;;;;;26.90;66.20;;;;;;4965852;28;19945;-69
2022/08/19 12:22:59;;;;;;;;;;;27.00;66.70;;;;;;4951388;28;20274;-69
2022/08/19 12:25:24;;;;;;;;;;;27.00;65.70;;;;;;4958075;28;19925;-68
2022/08/19 12:27:50;;;;;;;;;;;26.90;66.00;;;;;;4955411;28;19922;-68
2022/08/19 12:30:16;;;;;;;;;;;27.00;66.40;;;;;;4944279;28;20002;-68
2022/08/19 12:32:41;;;;;;;;;;;27.30;66.60;;;;;;4955004;28;20009;-67
2022/08/19 12:35:08;;;;;;;;;;;27.40;65.50;;;;;;4952323;28;19919;-67
2022/08/19 12:37:34;;;;;;;;;;;27.30;64.50;;;;;;4954956;28;19950;-67
2022/08/19 12:40:00;;;;;;;;;;;27.30;65.70;;;;;;4952313;28;20405;-68
2022/08/19 12:42:26;;;;;;;;;;;27.50;66.40;;;;;;4958291;28;20068;-67
2022/08/19 12:44:52;;;;;;;;;;;27.60;67.30;;;;;;4956382;28;20001;-68
2022/08/19 12:47:18;;;;;;;;;;;27.60;65.00;;;;;;4956498;28;19918;-63
2022/08/19 12:49:44;;;;;;;;;;;27.70;63.80;;;;;;4956497;28;19921;-63
2022/08/19 12:52:10;;;;;;;;;;;27.70;63.80;;;;;;4961505;28;19918;-65
2022/08/19 12:54:36;;;;;;;;;;;27.70;64.30;;;;;;4964373;28;20342;-66
2022/08/19 12:57:07;;;;;;;;;;;27.60;64.60;;;;;;4970358;28;20062;-64
2022/08/19 12:59:34;;;;;;;;;;;27.60;65.00;;;;;;4960129;28;19965;-64
2022/08/19 13:02:00;;;;;;;;;;;27.60;64.70;;;;;;4962083;28;19910;-63
2022/08/19 13:04:25;;;;;;;;;;;27.60;64.40;;;;;;4967647;28;19918;-64
2022/08/19 13:06:51;;;;;;;;;;;27.50;63.90;;;;;;4970045;28;19925;-63
2022/08/19 13:09:16;;;;;;;;;;;27.60;64.60;;;;;;4963028;28;19996;-63
2022/08/19 13:11:43;;;;;;;;;;;27.60;65.70;;;;;;4963627;28;19911;-63
2022/08/19 13:14:08;;;;;;;;;;;27.50;64.80;;;;;;4969952;28;19910;-62
2022/08/19 13:16:35;;;;;;;;;;;27.50;64.40;;;;;;4964901;28;19914;-63
2022/08/19 13:19:03;;;;;;;;;;;27.60;64.50;;;;;;4962032;28;20378;-66
2022/08/19 13:21:29;;;;;;;;;;;27.60;63.70;;;;;;4968749;28;19915;-63
2022/08/19 13:23:55;;;;;;;;;;;27.60;63.80;;;;;;4969216;28;20354;-66
2022/08/19 13:26:20;;;;;;;;;;;27.60;62.70;;;;;;4961888;28;19910;-65
2022/08/19 13:34:19;;;;;;;;;;;27.60;64.10;;;;;;4969798;28;19924;-64
2022/08/19 13:36:45;;;;;;;;;;;27.60;65.10;;;;;;4962691;28;19918;-65
2022/08/19 13:39:11;;;;;;;;;;;27.60;64.10;;;;;;4962655;28;20379;-65
2022/08/19 13:41:37;;;;;;;;;;;27.60;63.00;;;;;;4955528;28;19914;-65
2022/08/19 13:44:03;;;;;;;;;;;27.70;63.00;;;;;;4955544;28;20005;-65
2022/08/19 13:46:29;;;;;;;;;;;27.70;62.90;;;;;;4955446;28;19921;-65
2022/08/19 13:48:55;;;;;;;;;;;27.70;62.60;;;;;;4955377;28;19911;-66
2022/08/19 13:51:21;;;;;;;;;;;27.80;63.10;;;;;;4955754;28;19910;-64
2022/08/19 13:53:47;;;;;;;;;;;27.80;62.40;;;;;;4954972;28;19917;-65
2022/08/19 13:56:14;;;;;;;;;;;27.80;61.10;;;;;;4955361;28;19925;-65
2022/08/19 13:58:40;;;;;;;;;;;27.70;62.70;;;;;;4955210;28;20322;-65
2022/08/19 14:01:06;;;;;;;;;;;27.80;61.90;;;;;;4927242;28;19925;-62
2022/08/19 14:03:32;;;;;;;;;;;27.70;62.20;;;;;;4955138;28;20398;-65
2022/08/19 14:05:58;;;;;;;;;;;27.70;62.10;;;;;;4955155;28;19937;-66
2022/08/19 14:08:24;;;;;;;;;;;27.80;61.40;;;;;;4955278;28;19919;-66
2022/08/19 14:10:50;;;;;;;;;;;27.80;61.60;;;;;;4974236;28;19916;-68
2022/08/19 14:13:17;;;;;;;;;;;27.80;62.70;;;;;;4974149;28;20290;-64
2022/08/19 14:15:42;;;;;;;;;;;27.70;62.80;;;;;;4973888;28;19984;-64
2022/08/19 14:18:08;;;;;;;;;;;27.70;63.80;;;;;;4974102;28;20329;-65
2022/08/19 14:20:34;;;;;;;;;;;27.70;63.90;;;;;;4974161;28;19957;-64
2022/08/19 14:23:00;;;;;;;;;;;27.60;65.40;;;;;;4973862;28;19910;-65
2022/08/19 14:25:26;;;;;;;;;;;27.60;65.50;;;;;;4973932;28;19957;-66
2022/08/19 14:27:52;;;;;;;;;;;27.60;65.50;;;;;;4973945;28;19965;-66
2022/08/19 14:30:23;;;;;;;;;;;27.60;65.80;;;;;;4957123;28;19965;-65
2022/08/19 14:32:48;;;;;;;;;;;27.60;65.60;;;;;;4967277;28;19925;-65
2022/08/19 14:35:15;;;;;;;;;;;27.60;66.20;;;;;;4954703;28;19919;-65
2022/08/19 14:37:44;;;;;;;;;;;27.50;67.00;;;;;;4955751;28;19918;-66
2022/08/19 14:40:10;;;;;;;;;;;27.50;68.40;;;;;;4959264;28;19926;-64